.
WxDataArchive / Data Records for 2014-07-09
2014-07-08 July 2014 2014-07-10

Data Records for Wednesday, 09 July 2014

Time	Temp	Chill	HIndex	Humid	Dewpt	 Wind 	HiWind	WindDir	Rain 	Barom
-----	----	-----	------	-----	-----	------	------	-------	-----	-----
00:00	71.8	71.8	71.8	69	61.1	1	4	315	0.00	29.781 
00:05	71.1	71.1	71.1	72	61.6	0	1	315	0.00	29.781 
00:10	70.6	70.6	70.6	73	61.5	0	2	315	0.00	29.781 
00:15	70.3	70.3	70.3	75	62.0	1	3	315	0.00	29.789 
00:20	69.9	69.9	69.9	76	62.0	1	3	315	0.00	29.789 
00:25	69.6	69.6	69.6	77	62.1	1	3	315	0.00	29.789 
00:30	69.4	69.4	69.4	77	61.9	0	2	315	0.00	29.790 
00:35	69.1	69.1	69.1	78	61.9	0	1	315	0.00	29.790 
00:40	68.9	68.9	68.9	78	61.7	0	2	315	0.00	29.790 
00:45	68.8	68.8	68.8	79	62.0	0	0	---	0.00	29.792 
00:50	68.6	68.6	68.6	79	61.8	0	0	---	0.00	29.792 
00:55	68.4	68.4	68.4	80	62.0	0	0	---	0.00	29.792 
01:00	68.3	68.3	68.3	80	61.9	0	0	---	0.00	29.794 
01:05	68.1	68.1	68.1	81	62.0	0	0	---	0.00	29.794 
01:10	67.9	67.9	67.9	81	61.8	0	0	---	0.00	29.794 
01:15	67.8	67.8	67.8	81	61.7	0	0	---	0.00	29.791 
01:20	67.6	67.6	67.6	82	61.9	0	0	---	0.00	29.791 
01:25	67.6	67.6	67.6	82	61.9	0	0	---	0.00	29.791 
01:30	67.4	67.4	67.4	83	62.0	0	0	---	0.00	29.791 
01:35	67.4	67.4	67.4	83	62.0	0	0	---	0.00	29.791 
01:40	67.4	67.4	67.4	82	61.7	0	0	---	0.00	29.791 
01:45	67.6	67.6	67.6	82	61.9	0	0	---	0.00	29.793 
01:50	67.8	67.8	67.8	81	61.7	0	0	---	0.00	29.793 
01:55	67.9	67.9	67.9	81	61.8	0	0	---	0.00	29.793 
02:00	67.9	67.9	67.9	80	61.5	0	0	---	0.00	29.793 
02:05	67.9	67.9	67.9	80	61.5	0	0	---	0.00	29.793 
02:10	67.9	67.9	67.9	80	61.5	0	0	---	0.00	29.793 
02:15	67.8	67.8	67.8	80	61.4	0	0	---	0.00	29.792 
02:20	67.8	67.8	67.8	80	61.4	0	0	---	0.00	29.792 
02:25	67.8	67.8	67.8	80	61.4	0	0	---	0.00	29.792 
02:30	67.8	67.8	67.8	80	61.4	0	0	---	0.00	29.792 
02:35	67.8	67.8	67.8	80	61.4	0	0	---	0.00	29.792 
02:40	67.6	67.6	67.6	80	61.2	0	0	---	0.00	29.792 
02:45	67.4	67.4	67.4	81	61.4	0	0	---	0.00	29.793 
02:50	67.4	67.4	67.4	81	61.4	0	0	---	0.00	29.793 
02:55	67.3	67.3	67.3	81	61.3	0	0	---	0.00	29.793 
03:00	67.3	67.3	67.3	81	61.3	0	1	315	0.00	29.791 
03:05	67.3	67.3	67.3	81	61.3	0	1	315	0.00	29.791 
03:10	67.1	67.1	67.1	81	61.1	0	1	315	0.00	29.791 
03:15	66.9	66.9	66.9	81	60.9	0	1	315	0.00	29.790 
03:20	66.9	66.9	66.9	81	60.9	0	0	---	0.00	29.790 
03:25	66.8	66.8	66.8	81	60.8	0	0	---	0.00	29.790 
03:30	66.8	66.8	66.8	81	60.8	0	0	---	0.00	29.790 
03:35	66.6	66.6	66.6	81	60.6	0	0	---	0.00	29.790 
03:40	66.4	66.4	66.4	82	60.7	0	1	315	0.00	29.790 
03:45	66.4	66.4	66.4	82	60.7	0	1	315	0.00	29.792 
03:50	66.4	66.4	66.4	82	60.7	0	1	315	0.00	29.792 
03:55	66.3	66.3	66.3	82	60.6	0	1	315	0.00	29.792 
04:00	66.3	66.3	66.3	82	60.6	0	1	315	0.00	29.793 
04:05	66.1	66.1	66.1	82	60.4	0	1	315	0.00	29.793 
04:10	66.1	66.1	66.1	82	60.4	0	1	315	0.00	29.793 
04:15	66.0	66.0	66.0	83	60.7	0	1	315	0.00	29.797 
04:20	65.8	65.8	65.8	83	60.5	0	1	315	0.00	29.797 
04:25	65.8	65.8	65.8	83	60.5	0	1	315	0.00	29.797 
04:30	65.8	65.8	65.8	83	60.5	0	1	315	0.00	29.802 
04:35	65.6	65.6	65.6	83	60.3	0	1	315	0.00	29.802 
04:40	65.5	65.5	65.5	83	60.2	0	1	315	0.00	29.802 
04:45	65.5	65.5	65.5	84	60.5	0	1	315	0.00	29.805 
04:50	65.3	65.3	65.3	84	60.3	0	1	315	0.00	29.805 
04:55	65.2	65.2	65.2	84	60.2	0	1	315	0.00	29.805 
05:00	65.0	65.0	65.0	84	60.0	0	0	---	0.00	29.810 
05:05	65.0	65.0	65.0	84	60.0	0	1	315	0.00	29.810 
05:10	64.8	64.8	64.8	84	59.8	0	1	315	0.00	29.810 
05:15	64.7	64.7	64.7	84	59.7	0	0	---	0.00	29.810 
05:20	64.5	64.5	64.5	84	59.6	0	0	---	0.00	29.810 
05:25	64.3	64.3	64.3	85	59.7	0	0	---	0.00	29.810 
05:30	64.2	64.2	64.2	85	59.6	0	0	---	0.00	29.818 
05:35	64.0	64.0	64.0	86	59.7	0	0	---	0.00	29.818 
05:40	63.9	63.9	63.9	86	59.6	0	0	---	0.00	29.818 
05:45	63.7	63.7	63.7	86	59.4	0	0	---	0.00	29.821 
05:50	63.5	63.5	63.5	87	59.6	0	0	---	0.00	29.821 
05:55	63.4	63.4	63.4	87	59.5	0	0	---	0.00	29.821 
06:00	63.2	63.2	63.2	87	59.3	0	0	---	0.00	29.823 
06:05	63.2	63.2	63.2	88	59.6	0	0	---	0.00	29.823 
06:10	63.2	63.2	63.2	88	59.6	0	0	---	0.00	29.823 
06:15	63.2	63.2	63.2	88	59.6	0	0	---	0.00	29.829 
06:20	63.1	63.1	63.1	88	59.5	0	0	---	0.00	29.829 
06:25	63.1	63.1	63.1	88	59.5	0	0	---	0.00	29.829 
06:30	62.9	62.9	62.9	88	59.3	0	0	---	0.00	29.830 
06:35	62.9	62.9	62.9	88	59.3	0	0	---	0.00	29.830 
06:40	62.9	62.9	62.9	88	59.3	0	0	---	0.00	29.830 
06:45	62.9	62.9	62.9	88	59.3	0	0	---	0.00	29.832 
06:50	62.7	62.7	62.7	88	59.1	0	0	---	0.00	29.832 
06:55	62.7	62.7	62.7	88	59.1	0	0	---	0.00	29.832 
07:00	62.7	62.7	62.7	89	59.4	0	0	---	0.00	29.839 
07:05	62.9	62.9	62.9	89	59.6	0	0	---	0.00	29.839 
07:10	63.1	63.1	63.1	89	59.8	0	0	---	0.00	29.839 
07:15	63.2	63.2	63.2	89	59.9	0	1	315	0.00	29.843 
07:20	63.4	63.4	63.4	89	60.1	0	1	315	0.00	29.843 
07:25	63.7	63.7	63.7	88	60.1	0	1	315	0.00	29.843 
07:30	64.2	64.2	64.2	88	60.6	0	0	---	0.00	29.846 
07:35	64.5	64.5	64.5	88	60.9	0	0	---	0.00	29.846 
07:40	64.8	64.8	64.8	87	60.8	0	1	315	0.00	29.846 
07:45	65.3	65.3	65.3	86	61.0	0	0	---	0.00	29.849 
07:50	65.8	65.8	65.8	84	60.8	0	1	315	0.00	29.849 
07:55	66.1	66.1	66.1	84	61.1	0	1	315	0.00	29.849 
08:00	66.3	66.3	66.3	82	60.6	0	2	315	0.00	29.849 
08:05	66.4	66.4	66.4	81	60.4	0	1	315	0.00	29.849 
08:10	66.8	66.8	66.8	80	60.4	0	1	315	0.00	29.849 
08:15	67.3	67.3	67.3	80	60.9	0	1	315	0.00	29.855 
08:20	67.6	67.6	67.6	79	60.8	0	2	315	0.00	29.855 
08:25	67.9	67.9	67.9	78	60.8	0	2	315	0.00	29.855 
08:30	68.4	68.4	68.4	77	60.9	0	1	315	0.00	29.856 
08:35	68.8	68.8	68.8	75	60.5	1	2	315	0.00	29.856 
08:40	69.1	69.1	69.1	76	61.2	0	2	315	0.00	29.856 
08:45	69.3	69.3	69.3	75	61.0	0	2	315	0.00	29.856 
08:50	69.4	69.4	69.4	74	60.7	0	2	315	0.00	29.856 
08:55	69.8	69.8	69.8	73	60.7	0	1	315	0.00	29.856 
09:00	70.1	70.1	70.1	72	60.6	0	2	315	0.00	29.856 
09:05	70.4	70.4	70.4	72	60.9	0	1	315	0.00	29.856 
09:10	70.6	70.6	70.6	70	60.3	1	2	315	0.00	29.856 
09:15	70.9	70.9	70.9	69	60.2	1	2	315	0.00	29.858 
09:20	71.1	71.1	71.1	69	60.4	0	2	315	0.00	29.858 
09:25	71.3	71.3	71.3	67	59.8	1	3	315	0.00	29.858 
09:30	71.3	71.3	71.3	67	59.8	1	3	315	0.00	29.862 
09:35	71.6	71.6	71.6	66	59.6	0	2	315	0.00	29.862 
09:40	72.0	72.0	72.0	66	60.0	0	2	315	0.00	29.862 
09:45	72.3	72.3	72.3	64	59.4	1	2	315	0.00	29.858 
09:50	72.7	72.7	72.7	64	59.8	0	2	315	0.00	29.858 
09:55	73.2	73.2	73.2	62	59.4	1	2	315	0.00	29.858 
10:00	73.2	73.2	73.2	60	58.5	1	2	315	0.00	29.858 
10:05	73.5	73.5	73.5	60	58.7	0	2	315	0.00	29.858 
10:10	73.5	73.5	73.5	58	57.8	1	4	315	0.00	29.858 
10:15	73.5	73.5	73.5	58	57.8	1	3	315	0.00	29.860 
10:20	73.3	73.3	73.3	57	57.1	1	4	315	0.00	29.860 
10:25	73.5	73.5	73.5	58	57.8	1	3	315	0.00	29.860 
10:30	73.5	73.5	73.5	57	57.3	1	3	315	0.00	29.868 
10:35	73.9	73.9	73.9	56	57.2	1	3	315	0.00	29.868 
10:40	73.9	73.9	73.9	57	57.7	1	5	315	0.00	29.868 
10:45	74.2	74.2	74.2	60	59.4	0	2	338	0.00	29.870 
10:50	74.6	74.6	74.6	57	58.3	0	2	338	0.00	29.870 
10:55	74.9	74.9	74.9	56	58.1	1	4	338	0.00	29.870 
11:00	74.7	74.7	74.7	56	57.9	2	4	292	0.00	29.870 
11:05	74.7	74.7	74.7	57	58.4	1	3	292	0.00	29.870 
11:10	74.9	74.9	74.9	56	58.1	2	4	315	0.00	29.870 
11:15	74.9	74.9	74.9	56	58.1	1	3	315	0.00	29.874 
11:20	75.1	75.1	77.5	57	58.8	1	4	315	0.00	29.874 
11:25	75.4	75.4	77.7	56	58.6	1	2	315	0.00	29.874 
11:30	75.4	75.4	77.7	55	58.1	1	3	315	0.00	29.883 
11:35	75.3	75.3	77.7	56	58.5	1	3	315	0.00	29.883 
11:40	75.1	75.1	77.6	55	57.8	1	3	315	0.00	29.883 
11:45	75.3	75.3	77.6	57	59.0	1	3	315	0.00	29.885 
11:50	75.3	75.3	77.7	55	58.0	1	4	315	0.00	29.885 
11:55	75.1	75.1	77.5	57	58.8	1	3	315	0.00	29.885 
12:00	75.1	75.1	77.5	57	58.8	1	4	315	0.00	29.885 
12:05	75.6	75.6	77.8	56	58.8	1	4	315	0.00	29.885 
12:10	76.1	76.1	78.1	58	60.2	1	4	315	0.00	29.885 
12:15	76.0	76.0	78.1	56	59.2	1	5	338	0.00	29.884 
12:20	76.1	76.1	78.1	57	59.7	1	4	315	0.00	29.884 
12:25	75.8	75.8	77.9	56	59.0	1	4	315	0.00	29.884 
12:30	75.3	75.3	77.7	56	58.5	1	4	315	0.00	29.889 
12:35	75.8	75.8	78.0	55	58.5	1	4	315	0.00	29.889 
12:40	76.5	76.5	78.4	55	59.1	1	4	315	0.00	29.889 
12:45	76.5	76.5	78.4	54	58.6	1	4	315	0.00	29.888 
12:50	76.1	76.1	78.1	49	55.5	2	7	315	0.00	29.888 
12:55	76.5	76.5	78.3	51	57.0	2	5	270	0.00	29.888 
13:00	76.7	76.7	78.5	52	57.7	1	3	292	0.00	29.886 
13:05	77.4	77.4	78.9	52	58.4	2	3	292	0.00	29.886 
13:10	77.7	77.7	79.0	49	57.0	2	5	292	0.00	29.886 
13:15	77.9	77.9	79.1	48	56.6	2	5	292	0.00	29.884 
13:20	77.9	77.9	79.2	51	58.3	2	5	270	0.00	29.884 
13:25	77.9	77.9	79.1	48	56.6	2	6	270	0.00	29.884 
13:30	77.9	77.9	79.2	50	57.7	2	5	270	0.00	29.882 
13:35	77.9	77.9	79.1	49	57.2	2	5	315	0.00	29.882 
13:40	78.1	78.1	79.2	47	56.2	2	5	270	0.00	29.882 
13:45	78.1	78.1	79.2	47	56.2	2	3	270	0.00	29.881 
13:50	78.1	78.1	79.2	48	56.8	1	4	270	0.00	29.881 
13:55	77.9	77.9	79.0	46	55.4	3	5	292	0.00	29.881 
14:00	78.1	78.1	79.1	46	55.6	2	5	292	0.00	29.876 
14:05	78.5	78.5	79.2	44	54.7	2	3	292	0.00	29.876 
14:10	78.6	78.6	79.5	47	56.7	2	5	315	0.00	29.876 
14:15	78.8	78.8	79.4	44	55.0	2	5	315	0.00	29.873 
14:20	79.0	79.0	79.6	44	55.2	2	5	315	0.00	29.873 
14:25	79.4	79.4	79.8	43	54.9	3	6	270	0.00	29.873 
14:30	79.2	79.2	79.7	44	55.4	2	5	270	0.00	29.876 
14:35	79.4	79.4	79.8	44	55.6	2	5	270	0.00	29.876 
14:40	79.6	79.6	80.2	47	57.6	1	3	292	0.00	29.876 
14:45	79.4	79.4	80.0	46	56.8	2	3	292	0.00	29.876 
14:50	79.2	79.2	79.8	45	56.0	2	5	292	0.00	29.876 
14:55	78.5	78.5	79.4	46	56.0	1	4	315	0.00	29.876 
15:00	78.5	78.5	79.4	47	56.6	2	4	292	0.00	29.881 
15:05	78.8	78.8	79.5	45	55.6	2	4	292	0.00	29.881 
15:10	79.0	79.0	79.7	46	56.4	1	4	315	0.00	29.881 
15:15	78.8	78.8	79.6	46	56.2	2	5	315	0.00	29.884 
15:20	78.8	78.8	79.6	46	56.2	2	4	270	0.00	29.884 
15:25	79.4	79.4	80.0	46	56.8	1	5	292	0.00	29.884 
15:30	79.6	79.6	79.9	43	55.1	2	4	292	0.00	29.883 
15:35	79.8	79.8	80.1	44	55.9	1	3	292	0.00	29.883 
15:40	78.8	78.8	79.5	45	55.6	1	4	338	0.00	29.883 
15:45	78.6	78.6	79.4	46	56.1	2	6	270	0.00	29.889 
15:50	77.9	77.9	79.1	48	56.6	2	4	292	0.00	29.889 
15:55	77.7	77.7	79.1	52	58.6	1	4	292	0.00	29.889 
16:00	78.5	78.5	79.5	49	57.7	2	6	315	0.00	29.889 
16:05	77.9	77.9	79.2	50	57.7	4	7	292	0.00	29.889 
16:10	77.4	77.4	78.9	51	57.8	2	6	292	0.00	29.889 
16:15	77.7	77.7	79.1	52	58.6	2	6	338	0.00	29.891 
16:20	77.9	77.9	79.2	50	57.7	2	5	315	0.00	29.891 
16:25	77.9	77.9	79.1	49	57.2	2	7	338	0.00	29.891 
16:30	77.7	77.7	79.0	50	57.6	3	6	315	0.00	29.893 
16:35	77.6	77.6	79.0	52	58.6	1	3	338	0.00	29.893 
16:40	77.2	77.2	78.7	51	57.6	2	5	315	0.00	29.893 
16:45	77.2	77.2	78.7	51	57.6	2	6	270	0.00	29.897 
16:50	76.7	76.7	78.4	50	56.6	2	5	292	0.00	29.897 
16:55	76.5	76.5	78.3	50	56.5	2	6	270	0.00	29.897 
17:00	76.7	76.7	78.4	50	56.6	2	5	292	0.00	29.905 
17:05	77.0	77.0	78.6	50	56.9	2	4	292	0.00	29.905 
17:10	77.2	77.2	78.7	50	57.1	2	5	338	0.00	29.905 
17:15	77.6	77.6	78.9	48	56.3	1	4	315	0.00	29.909 
17:20	77.6	77.6	78.8	47	55.8	2	5	338	0.00	29.909 
17:25	77.6	77.6	78.9	48	56.3	1	4	315	0.00	29.909 
17:30	77.7	77.7	78.9	47	55.8	2	4	292	0.00	29.909 
17:35	77.6	77.6	78.8	46	55.2	2	5	292	0.00	29.909 
17:40	77.4	77.4	78.7	46	55.0	2	6	0	0.00	29.909 
17:45	77.4	77.4	78.7	46	55.0	2	5	338	0.00	29.911 
17:50	77.2	77.2	78.7	48	56.0	2	6	338	0.00	29.911 
17:55	77.2	77.2	78.7	48	56.0	1	4	315	0.00	29.911 
18:00	77.2	77.2	78.6	47	55.4	1	4	292	0.00	29.911 
18:05	77.4	77.4	78.7	46	55.0	1	4	315	0.00	29.911 
18:10	77.0	77.0	78.5	47	55.2	2	5	338	0.00	29.911 
18:15	76.8	76.8	78.4	48	55.6	2	4	315	0.00	29.911 
18:20	76.8	76.8	78.4	47	55.0	2	4	315	0.00	29.911 
18:25	76.8	76.8	78.4	48	55.6	1	3	315	0.00	29.911 
18:30	76.8	76.8	78.4	46	54.4	3	6	315	0.00	29.914 
18:35	76.5	76.5	78.2	46	54.2	2	5	315	0.00	29.914 
18:40	76.5	76.5	78.2	46	54.2	2	4	248	0.00	29.914 
18:45	76.3	76.3	78.2	47	54.6	1	4	292	0.00	29.919 
18:50	76.3	76.3	78.2	47	54.6	1	4	292	0.00	29.919 
18:55	76.3	76.3	78.1	45	53.4	2	3	292	0.00	29.919 
19:00	76.1	76.1	78.0	45	53.2	2	5	292	0.00	29.919 
19:05	76.0	76.0	78.0	45	53.1	2	5	315	0.00	29.919 
19:10	76.0	76.0	78.0	46	53.7	1	5	315	0.00	29.919 
19:15	76.0	76.0	78.0	46	53.7	1	3	315	0.00	29.922 
19:20	75.8	75.8	78.0	48	54.7	1	4	315	0.00	29.922 
19:25	75.4	75.4	77.8	47	53.7	1	3	0	0.00	29.922 
19:30	75.3	75.3	77.7	50	55.4	2	4	292	0.00	29.924 
19:35	75.3	75.3	77.7	49	54.8	1	2	292	0.00	29.924 
19:40	75.1	75.1	77.7	46	52.9	2	4	315	0.00	29.924 
19:45	74.9	74.9	74.9	46	52.7	1	4	292	0.00	29.925 
19:50	74.7	74.7	74.7	47	53.1	2	5	292	0.00	29.925 
19:55	74.6	74.6	74.6	48	53.6	1	3	292	0.00	29.925 
20:00	74.4	74.4	74.4	48	53.4	1	4	315	0.00	29.926 
20:05	74.2	74.2	74.2	50	54.3	1	3	315	0.00	29.926 
20:10	74.0	74.0	74.0	50	54.2	1	3	315	0.00	29.926 
20:15	73.9	73.9	73.9	50	54.1	1	3	315	0.00	29.924 
20:20	73.7	73.7	73.7	50	53.9	1	5	292	0.00	29.924 
20:25	73.3	73.3	73.3	51	54.1	1	2	292	0.00	29.924 
20:30	73.3	73.3	73.3	52	54.6	0	3	292	0.00	29.928 
20:35	73.0	73.0	73.0	53	54.8	0	1	292	0.00	29.928 
20:40	72.8	72.8	72.8	54	55.2	0	1	292	0.00	29.928 
20:45	72.5	72.5	72.5	54	54.9	0	3	292	0.00	29.937 
20:50	72.1	72.1	72.1	55	55.0	0	2	292	0.00	29.937 
20:55	71.8	71.8	71.8	55	54.7	0	2	292	0.00	29.937 
21:00	71.6	71.6	71.6	55	54.6	0	1	292	0.00	29.939 
21:05	71.3	71.3	71.3	56	54.8	0	2	292	0.00	29.939 
21:10	70.9	70.9	70.9	57	54.9	0	1	292	0.00	29.939 
21:15	70.8	70.8	70.8	57	54.8	0	1	292	0.00	29.940 
21:20	70.4	70.4	70.4	58	54.9	0	0	---	0.00	29.940 
21:25	70.3	70.3	70.3	58	54.8	0	2	292	0.00	29.940 
21:30	69.9	69.9	69.9	59	54.9	0	1	292	0.00	29.949 
21:35	69.8	69.8	69.8	60	55.3	0	1	292	0.00	29.949 
21:40	69.4	69.4	69.4	60	54.9	0	1	292	0.00	29.949 
21:45	69.3	69.3	69.3	61	55.3	0	1	292	0.00	29.955 
21:50	69.1	69.1	69.1	61	55.1	0	0	---	0.00	29.955 
21:55	68.9	68.9	68.9	61	54.9	0	0	---	0.00	29.955 
22:00	68.8	68.8	68.8	62	55.2	0	0	---	0.00	29.965 
22:05	68.6	68.6	68.6	62	55.0	0	0	---	0.00	29.965 
22:10	68.4	68.4	68.4	62	54.9	0	0	---	0.00	29.965 
22:15	68.4	68.4	68.4	62	54.9	0	0	---	0.00	29.972 
22:20	68.3	68.3	68.3	63	55.2	0	0	---	0.00	29.972 
22:25	68.3	68.3	68.3	63	55.2	0	0	---	0.00	29.972 
22:30	68.3	68.3	68.3	63	55.2	0	1	292	0.00	29.980 
22:35	68.3	68.3	68.3	63	55.2	0	0	---	0.00	29.980 
22:40	68.3	68.3	68.3	64	55.6	0	0	---	0.00	29.980 
22:45	68.1	68.1	68.1	64	55.5	0	0	---	0.00	29.984 
22:50	67.9	67.9	67.9	64	55.3	0	0	---	0.00	29.984 
22:55	67.8	67.8	67.8	64	55.2	0	0	---	0.00	29.984 
23:00	67.4	67.4	67.4	64	54.8	0	0	---	0.00	29.986 
23:05	67.3	67.3	67.3	65	55.1	0	0	---	0.00	29.986 
23:10	66.9	66.9	66.9	66	55.2	0	0	---	0.00	29.986 
23:15	66.6	66.6	66.6	66	54.9	0	0	---	0.00	29.989 
23:20	66.3	66.3	66.3	68	55.4	0	0	---	0.00	29.989 
23:25	66.1	66.1	66.1	68	55.2	0	0	---	0.00	29.989 
23:30	66.0	66.0	66.0	68	55.1	0	0	---	0.00	29.994 
23:35	65.8	65.8	65.8	69	55.3	0	0	---	0.00	29.994 
23:40	65.6	65.6	65.6	69	55.1	0	0	---	0.00	29.994 
23:45	65.5	65.5	65.5	70	55.4	0	0	---	0.00	30.002 
23:50	65.3	65.3	65.3	70	55.3	0	0	---	0.00	30.002 
23:55	65.0	65.0	65.0	72	55.7	0	0	---	0.00	30.002 

CoCoRaHS
IN-AL-39
A2 Web Hosting
Creative Commons License
GoDaddy
search engine by freefind advanced

loaded 2018-11-14 03:41:33 • last modified 2010-11-18 10:43:29
Privacy PolicyDisclaimer
• wx.awcolley.com is powered by PmWiki v.2002016 •
• all content (unless otherwise noted) © 2018 A W Colley